sensor_id;sensor_type;location;lat;lon;timestamp;temperature;humidity
66343;DHT22;53144;51.524;5.080;2023-04-10T00:02:18;7.91;82.02
66343;DHT22;53144;51.524;5.080;2023-04-10T00:04:43;7.83;82.68
66343;DHT22;53144;51.524;5.080;2023-04-10T00:07:09;7.89;82.36
66343;DHT22;53144;51.524;5.080;2023-04-10T00:09:34;7.80;82.53
66343;DHT22;53144;51.524;5.080;2023-04-10T00:12:00;7.77;82.94
66343;DHT22;53144;51.524;5.080;2023-04-10T00:14:25;7.80;82.80
66343;DHT22;53144;51.524;5.080;2023-04-10T00:16:51;7.79;82.94
66343;DHT22;53144;51.524;5.080;2023-04-10T00:19:16;7.84;82.48
66343;DHT22;53144;51.524;5.080;2023-04-10T00:21:42;7.84;82.76
66343;DHT22;53144;51.524;5.080;2023-04-10T00:24:08;7.81;82.67
66343;DHT22;53144;51.524;5.080;2023-04-10T00:26:34;7.89;82.78
66343;DHT22;53144;51.524;5.080;2023-04-10T00:29:00;7.87;82.75
66343;DHT22;53144;51.524;5.080;2023-04-10T00:31:25;8.00;81.41
66343;DHT22;53144;51.524;5.080;2023-04-10T00:33:51;8.17;81.31
66343;DHT22;53144;51.524;5.080;2023-04-10T00:36:17;8.21;81.11
66343;DHT22;53144;51.524;5.080;2023-04-10T00:38:43;8.31;80.55
66343;DHT22;53144;51.524;5.080;2023-04-10T00:41:08;8.38;79.93
66343;DHT22;53144;51.524;5.080;2023-04-10T00:43:33;8.45;79.53
66343;DHT22;53144;51.524;5.080;2023-04-10T00:45:59;8.58;78.99
66343;DHT22;53144;51.524;5.080;2023-04-10T00:48:25;8.70;77.79
66343;DHT22;53144;51.524;5.080;2023-04-10T00:50:51;8.81;77.64
66343;DHT22;53144;51.524;5.080;2023-04-10T00:53:16;8.87;77.19
66343;DHT22;53144;51.524;5.080;2023-04-10T00:55:42;9.03;76.79
66343;DHT22;53144;51.524;5.080;2023-04-10T00:58:08;9.10;76.20
66343;DHT22;53144;51.524;5.080;2023-04-10T01:00:37;9.11;76.30
66343;DHT22;53144;51.524;5.080;2023-04-10T01:03:03;9.16;75.86
66343;DHT22;53144;51.524;5.080;2023-04-10T01:05:29;9.16;75.78
66343;DHT22;53144;51.524;5.080;2023-04-10T01:13:40;9.16;75.48
66343;DHT22;53144;51.524;5.080;2023-04-10T01:16:16;9.16;75.51
66343;DHT22;53144;51.524;5.080;2023-04-10T01:19:09;9.13;75.90
66343;DHT22;53144;51.524;5.080;2023-04-10T01:21:39;9.21;75.08
66343;DHT22;53144;51.524;5.080;2023-04-10T01:27:22;9.31;74.04
66343;DHT22;53144;51.524;5.080;2023-04-10T01:29:55;9.40;73.98
66343;DHT22;53144;51.524;5.080;2023-04-10T01:32:21;9.32;73.85
66343;DHT22;53144;51.524;5.080;2023-04-10T01:34:50;9.30;73.94
66343;DHT22;53144;51.524;5.080;2023-04-10T01:37:19;9.34;73.73
66343;DHT22;53144;51.524;5.080;2023-04-10T01:39:50;9.35;73.57
66343;DHT22;53144;51.524;5.080;2023-04-10T01:42:18;9.34;74.02
66343;DHT22;53144;51.524;5.080;2023-04-10T01:44:46;9.27;74.01
66343;DHT22;53144;51.524;5.080;2023-04-10T01:47:14;9.26;73.70
66343;DHT22;53144;51.524;5.080;2023-04-10T01:49:42;9.23;74.04
66343;DHT22;53144;51.524;5.080;2023-04-10T01:52:10;9.20;74.40
66343;DHT22;53144;51.524;5.080;2023-04-10T01:54:36;9.11;74.80
66343;DHT22;53144;51.524;5.080;2023-04-10T01:57:03;9.10;74.69
66343;DHT22;53144;51.524;5.080;2023-04-10T01:59:28;9.07;74.67
66343;DHT22;53144;51.524;5.080;2023-04-10T02:01:56;9.09;74.24
66343;DHT22;53144;51.524;5.080;2023-04-10T02:04:22;9.18;73.64
66343;DHT22;53144;51.524;5.080;2023-04-10T02:09:22;9.18;73.68
66343;DHT22;53144;51.524;5.080;2023-04-10T02:11:54;9.18;73.55
66343;DHT22;53144;51.524;5.080;2023-04-10T02:14:24;9.20;73.13
66343;DHT22;53144;51.524;5.080;2023-04-10T02:16:53;9.17;73.71
66343;DHT22;53144;51.524;5.080;2023-04-10T02:19:21;9.16;73.54
66343;DHT22;53144;51.524;5.080;2023-04-10T02:21:48;9.20;73.72
66343;DHT22;53144;51.524;5.080;2023-04-10T02:24:14;9.16;73.40
66343;DHT22;53144;51.524;5.080;2023-04-10T02:26:44;9.14;73.36
66343;DHT22;53144;51.524;5.080;2023-04-10T02:29:10;9.13;73.55
66343;DHT22;53144;51.524;5.080;2023-04-10T02:31:36;9.07;73.82
66343;DHT22;53144;51.524;5.080;2023-04-10T02:34:02;9.06;73.53
66343;DHT22;53144;51.524;5.080;2023-04-10T02:36:27;9.03;73.81
66343;DHT22;53144;51.524;5.080;2023-04-10T02:38:52;9.00;73.61
66343;DHT22;53144;51.524;5.080;2023-04-10T02:41:18;8.99;74.09
66343;DHT22;53144;51.524;5.080;2023-04-10T02:43:43;8.86;74.73
66343;DHT22;53144;51.524;5.080;2023-04-10T02:46:08;8.77;75.56
66343;DHT22;53144;51.524;5.080;2023-04-10T02:48:34;8.73;74.73
66343;DHT22;53144;51.524;5.080;2023-04-10T02:50:59;8.66;75.71
66343;DHT22;53144;51.524;5.080;2023-04-10T02:53:24;8.62;75.65
66343;DHT22;53144;51.524;5.080;2023-04-10T02:55:51;8.55;75.60
66343;DHT22;53144;51.524;5.080;2023-04-10T02:58:17;8.53;75.79
66343;DHT22;53144;51.524;5.080;2023-04-10T03:00:50;8.46;75.67
66343;DHT22;53144;51.524;5.080;2023-04-10T03:03:17;8.42;75.91
66343;DHT22;53144;51.524;5.080;2023-04-10T03:05:43;8.41;76.55
66343;DHT22;53144;51.524;5.080;2023-04-10T03:08:12;8.24;77.34
66343;DHT22;53144;51.524;5.080;2023-04-10T03:10:37;8.24;76.80
66343;DHT22;53144;51.524;5.080;2023-04-10T03:13:03;8.20;77.13
66343;DHT22;53144;51.524;5.080;2023-04-10T03:15:28;8.11;77.58
66343;DHT22;53144;51.524;5.080;2023-04-10T03:17:53;7.95;78.24
66343;DHT22;53144;51.524;5.080;2023-04-10T03:20:19;7.87;78.11
66343;DHT22;53144;51.524;5.080;2023-04-10T03:22:44;7.71;78.72
66343;DHT22;53144;51.524;5.080;2023-04-10T03:25:09;7.69;79.71
66343;DHT22;53144;51.524;5.080;2023-04-10T03:27:35;7.59;79.91
66343;DHT22;53144;51.524;5.080;2023-04-10T03:30:00;7.55;80.44
66343;DHT22;53144;51.524;5.080;2023-04-10T03:32:27;7.58;80.41
66343;DHT22;53144;51.524;5.080;2023-04-10T03:34:55;7.48;80.98
66343;DHT22;53144;51.524;5.080;2023-04-10T03:37:21;7.38;80.76
66343;DHT22;53144;51.524;5.080;2023-04-10T03:39:46;7.28;81.04
66343;DHT22;53144;51.524;5.080;2023-04-10T03:42:11;7.18;81.06
66343;DHT22;53144;51.524;5.080;2023-04-10T03:44:37;7.14;81.57
66343;DHT22;53144;51.524;5.080;2023-04-10T03:47:02;7.05;82.04
66343;DHT22;53144;51.524;5.080;2023-04-10T03:49:28;7.04;81.61
66343;DHT22;53144;51.524;5.080;2023-04-10T03:51:53;7.02;81.05
66343;DHT22;53144;51.524;5.080;2023-04-10T03:54:18;7.04;80.99
66343;DHT22;53144;51.524;5.080;2023-04-10T03:56:44;7.05;81.32
66343;DHT22;53144;51.524;5.080;2023-04-10T03:59:09;7.00;82.23
66343;DHT22;53144;51.524;5.080;2023-04-10T04:01:35;6.95;82.19
66343;DHT22;53144;51.524;5.080;2023-04-10T04:04:00;6.84;81.64
66343;DHT22;53144;51.524;5.080;2023-04-10T04:06:25;6.83;82.01
66343;DHT22;53144;51.524;5.080;2023-04-10T04:08:51;6.74;82.78
66343;DHT22;53144;51.524;5.080;2023-04-10T04:11:17;6.70;82.41
66343;DHT22;53144;51.524;5.080;2023-04-10T04:13:42;6.67;82.77
66343;DHT22;53144;51.524;5.080;2023-04-10T04:16:08;6.70;82.77
66343;DHT22;53144;51.524;5.080;2023-04-10T04:18:34;6.64;82.39
66343;DHT22;53144;51.524;5.080;2023-04-10T04:20:59;6.69;82.84
66343;DHT22;53144;51.524;5.080;2023-04-10T04:23:25;6.69;82.45
66343;DHT22;53144;51.524;5.080;2023-04-10T04:25:50;6.71;81.81
66343;DHT22;53144;51.524;5.080;2023-04-10T04:28:18;6.79;82.07
66343;DHT22;53144;51.524;5.080;2023-04-10T04:30:43;6.81;81.84
66343;DHT22;53144;51.524;5.080;2023-04-10T04:33:09;6.80;81.82
66343;DHT22;53144;51.524;5.080;2023-04-10T04:35:34;6.77;83.09
66343;DHT22;53144;51.524;5.080;2023-04-10T04:38:00;6.76;82.15
66343;DHT22;53144;51.524;5.080;2023-04-10T04:40:25;6.70;82.35
66343;DHT22;53144;51.524;5.080;2023-04-10T04:42:50;6.63;83.36
66343;DHT22;53144;51.524;5.080;2023-04-10T04:45:16;6.62;82.35
66343;DHT22;53144;51.524;5.080;2023-04-10T04:47:41;6.58;83.64
66343;DHT22;53144;51.524;5.080;2023-04-10T04:50:09;6.62;83.49
66343;DHT22;53144;51.524;5.080;2023-04-10T04:52:34;6.63;82.62
66343;DHT22;53144;51.524;5.080;2023-04-10T04:55:00;6.62;82.77
66343;DHT22;53144;51.524;5.080;2023-04-10T04:57:25;6.63;83.18
66343;DHT22;53144;51.524;5.080;2023-04-10T04:59:51;6.62;83.19
66343;DHT22;53144;51.524;5.080;2023-04-10T05:02:16;6.57;84.32
66343;DHT22;53144;51.524;5.080;2023-04-10T05:04:43;6.62;83.64
66343;DHT22;53144;51.524;5.080;2023-04-10T05:07:09;6.64;83.15
66343;DHT22;53144;51.524;5.080;2023-04-10T05:09:34;6.74;82.74
66343;DHT22;53144;51.524;5.080;2023-04-10T05:12:00;6.74;83.26
66343;DHT22;53144;51.524;5.080;2023-04-10T05:14:26;6.79;82.34
66343;DHT22;53144;51.524;5.080;2023-04-10T05:16:52;6.84;81.98
66343;DHT22;53144;51.524;5.080;2023-04-10T05:19:17;6.87;82.34
66343;DHT22;53144;51.524;5.080;2023-04-10T05:21:42;6.91;82.53
66343;DHT22;53144;51.524;5.080;2023-04-10T05:24:08;6.98;82.05
66343;DHT22;53144;51.524;5.080;2023-04-10T05:26:33;7.04;81.98
66343;DHT22;53144;51.524;5.080;2023-04-10T05:28:59;7.07;82.10
66343;DHT22;53144;51.524;5.080;2023-04-10T05:31:24;7.05;82.10
66343;DHT22;53144;51.524;5.080;2023-04-10T05:33:49;7.08;81.95
66343;DHT22;53144;51.524;5.080;2023-04-10T05:36:15;7.11;81.98
66343;DHT22;53144;51.524;5.080;2023-04-10T05:38:42;7.09;82.11
66343;DHT22;53144;51.524;5.080;2023-04-10T05:41:07;7.16;82.45
66343;DHT22;53144;51.524;5.080;2023-04-10T05:43:33;7.18;82.26
66343;DHT22;53144;51.524;5.080;2023-04-10T05:45:58;7.22;82.44
66343;DHT22;53144;51.524;5.080;2023-04-10T05:48:23;7.23;81.49
66343;DHT22;53144;51.524;5.080;2023-04-10T05:50:50;7.28;82.36
66343;DHT22;53144;51.524;5.080;2023-04-10T05:53:18;7.31;82.40
66343;DHT22;53144;51.524;5.080;2023-04-10T05:55:44;7.35;83.30
66343;DHT22;53144;51.524;5.080;2023-04-10T05:58:09;7.38;82.71
66343;DHT22;53144;51.524;5.080;2023-04-10T06:00:35;7.46;82.49
66343;DHT22;53144;51.524;5.080;2023-04-10T06:03:02;7.46;82.40
66343;DHT22;53144;51.524;5.080;2023-04-10T06:05:27;7.55;81.95
66343;DHT22;53144;51.524;5.080;2023-04-10T06:07:53;7.62;82.60
66343;DHT22;53144;51.524;5.080;2023-04-10T06:10:18;7.74;82.37
66343;DHT22;53144;51.524;5.080;2023-04-10T06:12:43;7.74;81.53
66343;DHT22;53144;51.524;5.080;2023-04-10T06:15:09;7.80;82.51
66343;DHT22;53144;51.524;5.080;2023-04-10T06:17:40;7.86;81.94
66343;DHT22;53144;51.524;5.080;2023-04-10T06:20:06;7.91;81.26
66343;DHT22;53144;51.524;5.080;2023-04-10T06:22:31;7.94;81.61
66343;DHT22;53144;51.524;5.080;2023-04-10T06:24:57;8.04;81.14
66343;DHT22;53144;51.524;5.080;2023-04-10T06:27:23;8.12;81.28
66343;DHT22;53144;51.524;5.080;2023-04-10T06:29:48;8.20;80.64
66343;DHT22;53144;51.524;5.080;2023-04-10T06:32:13;8.27;80.13
66343;DHT22;53144;51.524;5.080;2023-04-10T06:34:39;8.28;79.64
66343;DHT22;53144;51.524;5.080;2023-04-10T06:37:04;8.39;78.69
66343;DHT22;53144;51.524;5.080;2023-04-10T06:39:29;8.44;78.88
66343;DHT22;53144;51.524;5.080;2023-04-10T06:41:55;8.41;79.10
66343;DHT22;53144;51.524;5.080;2023-04-10T06:44:21;8.51;78.28
66343;DHT22;53144;51.524;5.080;2023-04-10T06:46:47;8.55;77.80
66343;DHT22;53144;51.524;5.080;2023-04-10T06:49:12;8.58;78.60
66343;DHT22;53144;51.524;5.080;2023-04-10T06:51:38;8.65;79.55
66343;DHT22;53144;51.524;5.080;2023-04-10T06:54:03;8.62;78.13
66343;DHT22;53144;51.524;5.080;2023-04-10T06:56:28;8.68;76.60
66343;DHT22;53144;51.524;5.080;2023-04-10T06:58:54;8.77;77.49
66343;DHT22;53144;51.524;5.080;2023-04-10T07:01:19;8.81;76.51
66343;DHT22;53144;51.524;5.080;2023-04-10T07:03:44;8.83;76.57
66343;DHT22;53144;51.524;5.080;2023-04-10T07:06:10;8.91;76.90
66343;DHT22;53144;51.524;5.080;2023-04-10T07:08:36;8.94;76.47
66343;DHT22;53144;51.524;5.080;2023-04-10T07:11:01;9.00;77.58
66343;DHT22;53144;51.524;5.080;2023-04-10T07:13:26;9.09;76.99
66343;DHT22;53144;51.524;5.080;2023-04-10T07:15:52;9.18;76.02
66343;DHT22;53144;51.524;5.080;2023-04-10T07:18:17;9.24;74.79
66343;DHT22;53144;51.524;5.080;2023-04-10T07:20:42;9.32;75.08
66343;DHT22;53144;51.524;5.080;2023-04-10T07:23:08;9.40;75.73
66343;DHT22;53144;51.524;5.080;2023-04-10T07:25:33;9.48;75.88
66343;DHT22;53144;51.524;5.080;2023-04-10T07:27:58;9.59;74.85
66343;DHT22;53144;51.524;5.080;2023-04-10T07:30:23;9.72;74.37
66343;DHT22;53144;51.524;5.080;2023-04-10T07:32:49;9.88;73.60
66343;DHT22;53144;51.524;5.080;2023-04-10T07:35:14;10.06;74.20
66343;DHT22;53144;51.524;5.080;2023-04-10T07:37:40;10.27;74.42
66343;DHT22;53144;51.524;5.080;2023-04-10T07:40:08;10.50;73.50
66343;DHT22;53144;51.524;5.080;2023-04-10T07:42:33;10.67;72.42
66343;DHT22;53144;51.524;5.080;2023-04-10T07:44:59;10.86;73.33
66343;DHT22;53144;51.524;5.080;2023-04-10T07:47:24;11.01;73.58
66343;DHT22;53144;51.524;5.080;2023-04-10T07:49:50;11.15;71.88
66343;DHT22;53144;51.524;5.080;2023-04-10T07:52:15;11.25;71.90
66343;DHT22;53144;51.524;5.080;2023-04-10T07:54:40;11.37;71.23
66343;DHT22;53144;51.524;5.080;2023-04-10T07:57:06;11.40;72.19
66343;DHT22;53144;51.524;5.080;2023-04-10T07:59:31;11.42;70.99
66343;DHT22;53144;51.524;5.080;2023-04-10T08:01:56;11.49;70.93
66343;DHT22;53144;51.524;5.080;2023-04-10T08:04:22;11.47;70.26
66343;DHT22;53144;51.524;5.080;2023-04-10T08:06:47;11.54;70.01
66343;DHT22;53144;51.524;5.080;2023-04-10T08:09:14;11.54;70.80
66343;DHT22;53144;51.524;5.080;2023-04-10T08:11:39;11.66;70.90
66343;DHT22;53144;51.524;5.080;2023-04-10T08:14:05;11.71;70.40
66343;DHT22;53144;51.524;5.080;2023-04-10T08:16:32;11.78;69.70
66343;DHT22;53144;51.524;5.080;2023-04-10T08:18:58;11.84;69.42
66343;DHT22;53144;51.524;5.080;2023-04-10T08:21:24;11.93;66.76
66343;DHT22;53144;51.524;5.080;2023-04-10T08:23:56;11.95;66.59
66343;DHT22;53144;51.524;5.080;2023-04-10T08:26:21;12.05;67.89
66343;DHT22;53144;51.524;5.080;2023-04-10T08:28:47;12.01;66.28
66343;DHT22;53144;51.524;5.080;2023-04-10T08:31:15;12.04;67.71
66343;DHT22;53144;51.524;5.080;2023-04-10T08:33:41;12.02;66.43
66343;DHT22;53144;51.524;5.080;2023-04-10T08:36:09;12.05;66.39
66343;DHT22;53144;51.524;5.080;2023-04-10T08:38:37;12.17;67.68
66343;DHT22;53144;51.524;5.080;2023-04-10T08:41:02;12.15;67.52
66343;DHT22;53144;51.524;5.080;2023-04-10T08:43:27;12.12;67.39
66343;DHT22;53144;51.524;5.080;2023-04-10T08:45:53;12.21;67.85
66343;DHT22;53144;51.524;5.080;2023-04-10T08:48:20;12.28;68.83
66343;DHT22;53144;51.524;5.080;2023-04-10T08:50:48;12.33;68.30
66343;DHT22;53144;51.524;5.080;2023-04-10T08:53:14;12.43;67.26
66343;DHT22;53144;51.524;5.080;2023-04-10T08:55:41;12.50;68.02
66343;DHT22;53144;51.524;5.080;2023-04-10T08:58:08;12.60;66.22
66343;DHT22;53144;51.524;5.080;2023-04-10T09:00:34;12.66;64.95
66343;DHT22;53144;51.524;5.080;2023-04-10T09:03:03;12.73;65.88
66343;DHT22;53144;51.524;5.080;2023-04-10T09:05:29;12.84;65.89
66343;DHT22;53144;51.524;5.080;2023-04-10T09:07:55;12.97;65.34
66343;DHT22;53144;51.524;5.080;2023-04-10T09:10:20;13.08;66.19
66343;DHT22;53144;51.524;5.080;2023-04-10T09:12:47;13.07;65.77
66343;DHT22;53144;51.524;5.080;2023-04-10T09:15:13;13.01;64.58
66343;DHT22;53144;51.524;5.080;2023-04-10T09:17:59;12.96;66.10
66343;DHT22;53144;51.524;5.080;2023-04-10T09:20:27;13.01;65.82
66343;DHT22;53144;51.524;5.080;2023-04-10T09:22:53;13.06;67.00
66343;DHT22;53144;51.524;5.080;2023-04-10T09:27:59;12.94;66.25
66343;DHT22;53144;51.524;5.080;2023-04-10T09:30:33;12.90;65.69
66343;DHT22;53144;51.524;5.080;2023-04-10T09:33:00;12.83;65.59
66343;DHT22;53144;51.524;5.080;2023-04-10T09:35:36;12.86;64.69
66343;DHT22;53144;51.524;5.080;2023-04-10T09:38:19;12.97;65.06
66343;DHT22;53144;51.524;5.080;2023-04-10T09:40:46;13.00;64.85
66343;DHT22;53144;51.524;5.080;2023-04-10T09:43:22;13.11;64.58
66343;DHT22;53144;51.524;5.080;2023-04-10T09:45:50;13.18;64.83
66343;DHT22;53144;51.524;5.080;2023-04-10T09:48:16;13.35;65.07
66343;DHT22;53144;51.524;5.080;2023-04-10T09:50:41;13.58;65.11
66343;DHT22;53144;51.524;5.080;2023-04-10T09:53:12;13.65;65.48
66343;DHT22;53144;51.524;5.080;2023-04-10T09:55:37;13.75;63.98
66343;DHT22;53144;51.524;5.080;2023-04-10T09:58:03;13.86;64.24
66343;DHT22;53144;51.524;5.080;2023-04-10T10:00:29;13.92;64.24
66343;DHT22;53144;51.524;5.080;2023-04-10T10:02:55;14.00;63.63
66343;DHT22;53144;51.524;5.080;2023-04-10T10:05:22;14.09;63.29
66343;DHT22;53144;51.524;5.080;2023-04-10T10:07:52;14.12;62.69
66343;DHT22;53144;51.524;5.080;2023-04-10T10:10:18;14.24;61.93
66343;DHT22;53144;51.524;5.080;2023-04-10T10:12:49;14.51;61.53
66343;DHT22;53144;51.524;5.080;2023-04-10T10:17:49;14.92;61.61
66343;DHT22;53144;51.524;5.080;2023-04-10T10:20:17;14.89;61.86
66343;DHT22;53144;51.524;5.080;2023-04-10T10:22:45;14.79;60.96
66343;DHT22;53144;51.524;5.080;2023-04-10T10:25:12;14.85;61.88
66343;DHT22;53144;51.524;5.080;2023-04-10T10:27:38;14.81;61.01
66343;DHT22;53144;51.524;5.080;2023-04-10T10:30:06;14.95;60.68
66343;DHT22;53144;51.524;5.080;2023-04-10T10:32:34;15.03;61.76
66343;DHT22;53144;51.524;5.080;2023-04-10T10:35:01;14.99;60.02
66343;DHT22;53144;51.524;5.080;2023-04-10T10:37:28;15.25;61.81
66343;DHT22;53144;51.524;5.080;2023-04-10T10:40:04;15.35;59.76
66343;DHT22;53144;51.524;5.080;2023-04-10T10:45:12;15.46;61.63
66343;DHT22;53144;51.524;5.080;2023-04-10T10:47:51;15.32;59.84
66343;DHT22;53144;51.524;5.080;2023-04-10T10:50:17;15.18;59.53
66343;DHT22;53144;51.524;5.080;2023-04-10T10:52:49;15.44;61.05
66343;DHT22;53144;51.524;5.080;2023-04-10T10:57:54;16.05;58.17
66343;DHT22;53144;51.524;5.080;2023-04-10T11:00:24;16.11;58.19
66343;DHT22;53144;51.524;5.080;2023-04-10T11:06:00;16.85;55.67
66343;DHT22;53144;51.524;5.080;2023-04-10T11:13:31;17.53;55.50
66343;DHT22;53144;51.524;5.080;2023-04-10T11:15:57;17.01;55.71
66343;DHT22;53144;51.524;5.080;2023-04-10T11:19:03;16.88;56.94
66343;DHT22;53144;51.524;5.080;2023-04-10T11:21:28;16.67;56.80
66343;DHT22;53144;51.524;5.080;2023-04-10T11:29:01;16.22;58.20
66343;DHT22;53144;51.524;5.080;2023-04-10T11:31:27;16.22;59.79
66343;DHT22;53144;51.524;5.080;2023-04-10T11:36:25;16.35;57.62
66343;DHT22;53144;51.524;5.080;2023-04-10T11:41:29;16.51;58.62
66343;DHT22;53144;51.524;5.080;2023-04-10T11:43:56;16.57;57.69
66343;DHT22;53144;51.524;5.080;2023-04-10T11:46:21;16.79;57.71
66343;DHT22;53144;51.524;5.080;2023-04-10T11:48:51;17.00;56.39
66343;DHT22;53144;51.524;5.080;2023-04-10T11:51:17;17.03;55.27
66343;DHT22;53144;51.524;5.080;2023-04-10T11:53:42;17.20;57.98
66343;DHT22;53144;51.524;5.080;2023-04-10T11:56:18;17.21;55.43
66343;DHT22;53144;51.524;5.080;2023-04-10T11:58:43;17.04;56.70
66343;DHT22;53144;51.524;5.080;2023-04-10T12:01:09;16.90;56.65
66343;DHT22;53144;51.524;5.080;2023-04-10T12:03:40;16.74;57.68
66343;DHT22;53144;51.524;5.080;2023-04-10T12:06:10;16.69;58.11
66343;DHT22;53144;51.524;5.080;2023-04-10T12:08:44;16.70;58.05
66343;DHT22;53144;51.524;5.080;2023-04-10T12:11:12;16.72;56.68
66343;DHT22;53144;51.524;5.080;2023-04-10T12:13:38;16.80;57.53
66343;DHT22;53144;51.524;5.080;2023-04-10T12:16:05;16.80;56.99
66343;DHT22;53144;51.524;5.080;2023-04-10T12:18:32;16.72;57.08
66343;DHT22;53144;51.524;5.080;2023-04-10T12:20:58;16.63;57.21
66343;DHT22;53144;51.524;5.080;2023-04-10T12:23:25;16.62;58.46
66343;DHT22;53144;51.524;5.080;2023-04-10T12:25:51;16.51;59.08
66343;DHT22;53144;51.524;5.080;2023-04-10T12:28:20;16.36;58.45
66343;DHT22;53144;51.524;5.080;2023-04-10T12:30:50;16.29;58.73
66343;DHT22;53144;51.524;5.080;2023-04-10T12:33:23;16.16;58.47
66343;DHT22;53144;51.524;5.080;2023-04-10T12:35:50;16.08;59.16
66343;DHT22;53144;51.524;5.080;2023-04-10T12:38:42;15.95;60.55
66343;DHT22;53144;51.524;5.080;2023-04-10T12:41:10;15.87;58.91
66343;DHT22;53144;51.524;5.080;2023-04-10T12:43:40;15.85;59.65
66343;DHT22;53144;51.524;5.080;2023-04-10T12:46:07;15.78;59.37
66343;DHT22;53144;51.524;5.080;2023-04-10T12:48:33;15.80;59.08
66343;DHT22;53144;51.524;5.080;2023-04-10T12:50:59;15.84;59.79
66343;DHT22;53144;51.524;5.080;2023-04-10T12:53:25;15.85;59.43
66343;DHT22;53144;51.524;5.080;2023-04-10T12:56:02;15.91;59.26
66343;DHT22;53144;51.524;5.080;2023-04-10T12:58:29;15.87;59.48
66343;DHT22;53144;51.524;5.080;2023-04-10T13:00:57;15.90;59.62
66343;DHT22;53144;51.524;5.080;2023-04-10T13:03:22;15.80;60.30
66343;DHT22;53144;51.524;5.080;2023-04-10T13:05:48;15.84;59.87
66343;DHT22;53144;51.524;5.080;2023-04-10T13:08:14;15.83;60.54
66343;DHT22;53144;51.524;5.080;2023-04-10T13:10:39;15.81;61.38
66343;DHT22;53144;51.524;5.080;2023-04-10T13:13:06;15.91;60.47
66343;DHT22;53144;51.524;5.080;2023-04-10T13:15:31;15.94;60.22
66343;DHT22;53144;51.524;5.080;2023-04-10T13:17:59;15.91;61.13
66343;DHT22;53144;51.524;5.080;2023-04-10T13:20:24;15.88;60.87
66343;DHT22;53144;51.524;5.080;2023-04-10T13:22:50;15.93;61.34
66343;DHT22;53144;51.524;5.080;2023-04-10T13:25:15;15.93;62.98
66343;DHT22;53144;51.524;5.080;2023-04-10T13:27:41;15.87;62.46
66343;DHT22;53144;51.524;5.080;2023-04-10T13:30:06;15.81;64.70
66343;DHT22;53144;51.524;5.080;2023-04-10T13:32:32;15.74;65.24
66343;DHT22;53144;51.524;5.080;2023-04-10T13:34:58;15.63;65.52
66343;DHT22;53144;51.524;5.080;2023-04-10T13:37:26;15.44;67.34
66343;DHT22;53144;51.524;5.080;2023-04-10T13:39:51;15.26;70.00
66343;DHT22;53144;51.524;5.080;2023-04-10T13:42:17;15.18;68.48
66343;DHT22;53144;51.524;5.080;2023-04-10T13:44:42;15.13;69.19
66343;DHT22;53144;51.524;5.080;2023-04-10T13:47:08;15.03;69.61
66343;DHT22;53144;51.524;5.080;2023-04-10T13:49:33;14.89;69.09
66343;DHT22;53144;51.524;5.080;2023-04-10T13:51:59;14.81;72.72
66343;DHT22;53144;51.524;5.080;2023-04-10T13:54:25;14.69;74.35
66343;DHT22;53144;51.524;5.080;2023-04-10T13:56:50;14.57;73.75
66343;DHT22;53144;51.524;5.080;2023-04-10T13:59:18;14.45;76.02
66343;DHT22;53144;51.524;5.080;2023-04-10T14:01:43;14.31;74.20
66343;DHT22;53144;51.524;5.080;2023-04-10T14:04:09;14.27;73.36
66343;DHT22;53144;51.524;5.080;2023-04-10T14:06:34;14.26;76.58
66343;DHT22;53144;51.524;5.080;2023-04-10T14:09:00;14.26;75.51
66343;DHT22;53144;51.524;5.080;2023-04-10T14:11:25;14.27;75.83
66343;DHT22;53144;51.524;5.080;2023-04-10T14:13:51;14.21;75.31
66343;DHT22;53144;51.524;5.080;2023-04-10T14:16:16;14.19;75.56
66343;DHT22;53144;51.524;5.080;2023-04-10T14:18:41;14.23;76.29
66343;DHT22;53144;51.524;5.080;2023-04-10T14:21:07;14.13;77.11
66343;DHT22;53144;51.524;5.080;2023-04-10T14:23:32;14.19;75.81
66343;DHT22;53144;51.524;5.080;2023-04-10T14:25:57;14.16;75.70
66343;DHT22;53144;51.524;5.080;2023-04-10T14:28:23;14.16;75.41
66343;DHT22;53144;51.524;5.080;2023-04-10T14:30:50;14.19;76.23
66343;DHT22;53144;51.524;5.080;2023-04-10T14:33:16;14.20;75.17
66343;DHT22;53144;51.524;5.080;2023-04-10T14:35:42;14.03;76.18
66343;DHT22;53144;51.524;5.080;2023-04-10T14:38:08;13.95;77.57
66343;DHT22;53144;51.524;5.080;2023-04-10T14:40:33;13.86;77.13
66343;DHT22;53144;51.524;5.080;2023-04-10T14:42:58;13.78;77.64
66343;DHT22;53144;51.524;5.080;2023-04-10T14:45:24;13.73;76.53
66343;DHT22;53144;51.524;5.080;2023-04-10T14:47:52;13.71;76.64
66343;DHT22;53144;51.524;5.080;2023-04-10T14:50:17;13.63;78.26
66343;DHT22;53144;51.524;5.080;2023-04-10T14:52:43;13.69;76.50
66343;DHT22;53144;51.524;5.080;2023-04-10T14:55:09;13.75;77.37
66343;DHT22;53144;51.524;5.080;2023-04-10T14:57:34;13.80;77.27
66343;DHT22;53144;51.524;5.080;2023-04-10T15:00:00;13.80;78.87
66343;DHT22;53144;51.524;5.080;2023-04-10T15:02:26;13.99;76.77
66343;DHT22;53144;51.524;5.080;2023-04-10T15:04:52;14.10;77.29
66343;DHT22;53144;51.524;5.080;2023-04-10T15:07:17;14.09;76.47
66343;DHT22;53144;51.524;5.080;2023-04-10T15:09:42;14.09;75.70
66343;DHT22;53144;51.524;5.080;2023-04-10T15:12:09;14.09;75.93
66343;DHT22;53144;51.524;5.080;2023-04-10T15:14:34;14.05;75.35
66343;DHT22;53144;51.524;5.080;2023-04-10T15:17:00;14.08;76.39
66343;DHT22;53144;51.524;5.080;2023-04-10T15:19:25;14.00;75.63
66343;DHT22;53144;51.524;5.080;2023-04-10T15:21:50;14.02;77.08
66343;DHT22;53144;51.524;5.080;2023-04-10T15:24:16;13.99;77.05
66343;DHT22;53144;51.524;5.080;2023-04-10T15:26:45;14.02;75.76
66343;DHT22;53144;51.524;5.080;2023-04-10T15:29:11;14.00;76.35
66343;DHT22;53144;51.524;5.080;2023-04-10T15:31:37;13.92;76.53
66343;DHT22;53144;51.524;5.080;2023-04-10T15:34:03;13.86;77.22
66343;DHT22;53144;51.524;5.080;2023-04-10T15:36:28;13.89;75.78
66343;DHT22;53144;51.524;5.080;2023-04-10T15:38:54;13.79;77.18
66343;DHT22;53144;51.524;5.080;2023-04-10T15:41:19;13.79;77.33
66343;DHT22;53144;51.524;5.080;2023-04-10T15:43:45;13.76;77.66
66343;DHT22;53144;51.524;5.080;2023-04-10T15:46:10;13.72;77.86
66343;DHT22;53144;51.524;5.080;2023-04-10T15:48:35;13.71;78.46
66343;DHT22;53144;51.524;5.080;2023-04-10T15:51:07;13.69;78.30
66343;DHT22;53144;51.524;5.080;2023-04-10T15:53:33;13.69;78.58
66343;DHT22;53144;51.524;5.080;2023-04-10T15:55:59;13.68;80.04
66343;DHT22;53144;51.524;5.080;2023-04-10T15:58:24;13.58;79.85
66343;DHT22;53144;51.524;5.080;2023-04-10T16:00:49;13.49;80.42
66343;DHT22;53144;51.524;5.080;2023-04-10T16:03:15;13.32;81.31
66343;DHT22;53144;51.524;5.080;2023-04-10T16:05:40;13.25;80.90
66343;DHT22;53144;51.524;5.080;2023-04-10T16:08:05;13.17;82.25
66343;DHT22;53144;51.524;5.080;2023-04-10T16:10:31;13.10;82.96
66343;DHT22;53144;51.524;5.080;2023-04-10T16:12:56;13.00;83.77
66343;DHT22;53144;51.524;5.080;2023-04-10T16:15:37;13.00;83.21